Time;durP1;ratioP1;P1;durP2;ratioP2;P2;SDS_P1;SDS_P2;PMS_P1;PMS_P2;Temp;Humidity;BMP_temperature;BMP_pressure;BME280_temperature;BME280_humidity;BME280_pressure;Samples;Min_cycle;Max_cycle;Signal;HPM_P1;HPM_P2
2024/02/17 00:00:39;;;;;;;14.93;8.93;;;11.60;99.90;;;;;;5072422;28;20171;-71
2024/02/17 00:03:05;;;;;;;13.00;7.27;;;11.50;99.90;;;;;;5073645;28;20412;-71
2024/02/17 00:05:30;;;;;;;11.90;9.10;;;11.50;99.90;;;;;;5073332;28;20180;-71
2024/02/17 00:07:56;;;;;;;16.13;8.53;;;11.50;99.90;;;;;;5073509;28;20198;-71
2024/02/17 00:10:22;;;;;;;14.73;8.10;;;11.50;99.90;;;;;;5073320;28;20178;-70
2024/02/17 00:12:47;;;;;;;12.87;8.13;;;11.50;99.90;;;;;;5073153;28;20591;-71
2024/02/17 00:15:13;;;;;;;14.43;9.20;;;11.60;99.90;;;;;;5073372;28;20206;-71
2024/02/17 00:17:38;;;;;;;18.70;7.60;;;11.60;99.90;;;;;;5073007;28;20277;-71
2024/02/17 00:20:05;;;;;;;15.77;9.83;;;11.60;99.90;;;;;;5073206;28;20547;-71
2024/02/17 00:22:30;;;;;;;13.27;8.80;;;11.60;99.90;;;;;;5073163;28;20225;-71
2024/02/17 00:24:56;;;;;;;9.90;8.00;;;11.60;99.90;;;;;;5073336;28;20493;-70
2024/02/17 00:27:21;;;;;;;24.20;10.00;;;11.70;99.90;;;;;;5073324;28;20190;-70
2024/02/17 00:29:47;;;;;;;16.30;9.80;;;11.70;99.90;;;;;;5072957;28;20173;-71
2024/02/17 00:32:13;;;;;;;15.90;10.43;;;11.70;99.90;;;;;;5073108;28;20657;-71
2024/02/17 00:34:40;;;;;;;14.57;9.87;;;11.70;99.90;;;;;;5072969;28;20190;-71
2024/02/17 00:37:05;;;;;;;13.67;8.80;;;11.70;99.90;;;;;;5072593;28;20730;-71
2024/02/17 00:39:31;;;;;;;17.83;10.23;;;11.70;99.90;;;;;;5072688;28;20423;-71
2024/02/17 00:41:57;;;;;;;15.10;9.93;;;11.70;99.90;;;;;;5072840;28;20574;-71
2024/02/17 00:44:22;;;;;;;15.73;9.00;;;11.60;99.90;;;;;;5072857;28;20169;-71
2024/02/17 00:46:48;;;;;;;16.93;10.50;;;11.60;99.90;;;;;;5072624;28;20591;-71
2024/02/17 00:49:14;;;;;;;17.27;10.77;;;11.60;99.90;;;;;;5072838;28;20249;-71
2024/02/17 00:51:39;;;;;;;16.40;10.83;;;11.60;99.90;;;;;;5072810;28;20691;-70
2024/02/17 00:54:05;;;;;;;17.03;10.67;;;11.60;99.90;;;;;;5072658;28;20212;-71
2024/02/17 00:56:30;;;;;;;24.07;9.90;;;11.50;99.90;;;;;;5072508;28;20181;-71
2024/02/17 00:58:56;;;;;;;16.63;9.93;;;11.50;99.90;;;;;;5071352;28;20523;-71
2024/02/17 01:01:21;;;;;;;24.00;11.40;;;11.50;99.90;;;;;;5072148;28;20530;-71
2024/02/17 01:03:47;;;;;;;15.63;8.90;;;11.50;99.90;;;;;;5072301;28;20174;-71
2024/02/17 01:06:12;;;;;;;18.20;10.10;;;11.40;99.90;;;;;;5071907;28;20189;-71
2024/02/17 01:08:38;;;;;;;16.27;11.97;;;11.30;99.90;;;;;;5072284;28;20162;-71
2024/02/17 01:11:03;;;;;;;16.20;9.77;;;11.30;99.90;;;;;;5072059;28;20223;-71
2024/02/17 01:13:29;;;;;;;18.20;11.60;;;11.30;99.90;;;;;;5072192;28;20174;-71
2024/02/17 01:15:56;;;;;;;17.57;9.13;;;11.20;99.90;;;;;;5072290;28;20194;-71
2024/02/17 01:18:21;;;;;;;19.10;12.00;;;11.30;99.90;;;;;;5072258;28;20209;-71
2024/02/17 01:20:47;;;;;;;16.63;9.43;;;11.30;99.90;;;;;;5071989;28;20883;-71
2024/02/17 01:23:12;;;;;;;15.67;8.90;;;11.40;99.90;;;;;;5072090;28;20170;-71
2024/02/17 01:25:38;;;;;;;20.80;9.63;;;11.40;99.90;;;;;;5071434;28;20227;-70
2024/02/17 01:28:04;;;;;;;15.10;10.00;;;11.40;99.90;;;;;;5072220;28;20173;-71
2024/02/17 01:30:29;;;;;;;20.70;10.40;;;11.30;99.90;;;;;;5071893;28;20198;-71
2024/02/17 01:32:55;;;;;;;15.47;9.80;;;11.30;99.90;;;;;;5072052;28;20396;-71
2024/02/17 01:35:20;;;;;;;15.50;9.23;;;11.40;99.90;;;;;;5072384;28;20229;-71
2024/02/17 01:37:48;;;;;;;18.10;9.87;;;11.40;99.90;;;;;;5072192;28;20186;-71
2024/02/17 01:40:17;;;;;;;16.27;9.87;;;11.40;99.90;;;;;;5071681;28;20163;-70
2024/02/17 01:42:42;;;;;;;16.93;11.13;;;11.40;99.90;;;;;;5072203;28;20401;-71
2024/02/17 01:45:10;;;;;;;21.30;10.27;;;11.40;99.90;;;;;;5071977;28;20401;-70
2024/02/17 01:47:36;;;;;;;17.80;11.20;;;11.40;99.90;;;;;;5071733;28;20189;-70
2024/02/17 01:50:02;;;;;;;16.20;9.43;;;11.40;99.90;;;;;;5071580;28;20412;-70
2024/02/17 01:52:29;;;;;;;24.13;9.67;;;11.40;99.90;;;;;;5070368;28;20431;-71
2024/02/17 01:54:55;;;;;;;17.03;9.70;;;11.40;99.90;;;;;;5071676;28;20232;-70
2024/02/17 01:57:22;;;;;;;18.10;9.30;;;11.50;99.90;;;;;;5071688;28;20535;-71
2024/02/17 01:59:49;;;;;;;16.97;9.00;;;11.50;99.90;;;;;;5071634;28;20400;-71
2024/02/17 02:02:15;;;;;;;12.37;8.57;;;11.50;99.90;;;;;;5072212;28;20420;-71
2024/02/17 02:04:40;;;;;;;13.57;10.27;;;11.50;99.90;;;;;;5071661;28;20400;-69
2024/02/17 02:07:06;;;;;;;17.17;10.77;;;11.50;99.90;;;;;;5071477;28;20194;-71
2024/02/17 02:09:31;;;;;;;17.37;10.70;;;11.40;99.90;;;;;;5071287;28;20245;-71
2024/02/17 02:11:57;;;;;;;18.07;10.40;;;11.40;99.90;;;;;;5071696;28;20166;-71
2024/02/17 02:14:23;;;;;;;14.87;9.47;;;11.50;99.90;;;;;;5071602;28;20197;-71
2024/02/17 02:16:48;;;;;;;13.23;9.50;;;11.50;99.90;;;;;;5071491;28;20189;-71
2024/02/17 02:19:15;;;;;;;18.00;9.50;;;11.50;99.90;;;;;;5071626;28;20246;-70
2024/02/17 02:21:42;;;;;;;19.30;9.93;;;11.50;99.90;;;;;;5070032;28;20174;-70
2024/02/17 02:24:07;;;;;;;18.40;9.60;;;11.50;99.90;;;;;;5071409;28;20408;-71
2024/02/17 02:26:34;;;;;;;13.70;7.57;;;11.50;99.90;;;;;;5071507;28;20574;-70
2024/02/17 02:29:01;;;;;;;13.87;8.40;;;11.40;99.90;;;;;;5071643;28;20404;-71
2024/02/17 02:31:27;;;;;;;21.73;10.20;;;11.40;99.90;;;;;;5071188;28;20431;-70
2024/02/17 02:33:53;;;;;;;14.87;9.30;;;11.40;99.90;;;;;;5071385;28;20448;-71
2024/02/17 02:36:22;;;;;;;19.73;9.40;;;11.40;99.90;;;;;;5073210;28;20421;-71
2024/02/17 02:38:48;;;;;;;13.87;8.47;;;11.30;99.90;;;;;;5075245;28;20162;-70
2024/02/17 02:41:14;;;;;;;20.87;8.63;;;11.30;99.90;;;;;;5075019;28;20403;-72
2024/02/17 02:43:40;;;;;;;16.50;7.87;;;11.30;99.90;;;;;;5075177;28;20503;-71
2024/02/17 02:46:07;;;;;;;15.80;7.90;;;11.30;99.90;;;;;;5073684;28;20459;-71
2024/02/17 02:48:32;;;;;;;15.40;7.73;;;11.30;99.90;;;;;;5073726;28;20782;-70
2024/02/17 02:50:58;;;;;;;16.63;7.97;;;11.40;99.90;;;;;;5075136;28;20499;-70
2024/02/17 02:53:24;;;;;;;10.37;6.70;;;11.40;99.90;;;;;;5074842;28;20603;-70
2024/02/17 02:55:50;;;;;;;10.80;7.23;;;11.30;99.90;;;;;;5073619;28;20408;-70
2024/02/17 02:58:15;;;;;;;13.73;7.43;;;11.30;99.90;;;;;;5074894;28;20661;-70
2024/02/17 03:00:41;;;;;;;11.10;6.80;;;11.40;99.90;;;;;;5074590;28;20157;-70
2024/02/17 03:03:07;;;;;;;12.63;7.70;;;11.30;99.90;;;;;;5074869;28;20192;-71
2024/02/17 03:05:32;;;;;;;13.90;7.77;;;11.30;99.90;;;;;;5074784;28;20170;-71
2024/02/17 03:07:58;;;;;;;12.40;7.23;;;11.30;99.90;;;;;;5074583;28;20673;-70
2024/02/17 03:10:23;;;;;;;12.47;8.10;;;11.30;99.90;;;;;;5074467;28;20171;-70
2024/02/17 03:12:49;;;;;;;10.90;6.70;;;11.30;99.90;;;;;;5074677;28;20174;-70
2024/02/17 03:15:14;;;;;;;13.70;6.60;;;11.20;99.90;;;;;;5074723;28;20280;-71
2024/02/17 03:17:40;;;;;;;9.33;5.83;;;11.20;99.90;;;;;;5074578;28;20185;-70
2024/02/17 03:20:06;;;;;;;12.27;6.57;;;11.20;99.90;;;;;;5074159;28;20170;-71
2024/02/17 03:22:33;;;;;;;11.37;6.47;;;11.20;99.90;;;;;;5074366;28;20170;-71
2024/02/17 03:24:58;;;;;;;8.77;6.30;;;11.20;99.90;;;;;;5074417;28;20877;-70
2024/02/17 03:27:24;;;;;;;14.47;7.37;;;11.20;99.90;;;;;;5074343;28;20428;-71
2024/02/17 03:29:50;;;;;;;14.57;6.63;;;11.20;99.90;;;;;;5074143;28;20193;-71
2024/02/17 03:32:15;;;;;;;16.90;6.43;;;11.20;99.90;;;;;;5074391;28;20681;-71
2024/02/17 03:34:41;;;;;;;11.27;6.40;;;11.10;99.90;;;;;;5074467;28;20661;-71
2024/02/17 03:37:07;;;;;;;8.67;6.37;;;11.20;99.90;;;;;;5074275;28;20213;-71
2024/02/17 03:39:34;;;;;;;9.43;6.00;;;11.10;99.90;;;;;;5074001;28;20403;-71
2024/02/17 03:41:59;;;;;;;9.33;6.73;;;11.10;99.90;;;;;;5074363;28;20177;-71
2024/02/17 03:44:25;;;;;;;12.80;6.73;;;11.10;99.90;;;;;;5074197;28;20483;-71
2024/02/17 03:46:51;;;;;;;10.00;6.27;;;11.10;99.90;;;;;;5073905;28;20186;-71
2024/02/17 03:49:20;;;;;;;7.50;6.30;;;11.00;99.90;;;;;;5073899;28;20269;-71
2024/02/17 03:51:46;;;;;;;16.13;7.47;;;11.00;99.90;;;;;;5073909;28;20228;-71
2024/02/17 03:54:11;;;;;;;14.30;6.90;;;11.00;99.90;;;;;;5074051;28;20942;-71
2024/02/17 03:56:37;;;;;;;13.03;7.30;;;11.00;99.90;;;;;;5073939;28;20446;-71
2024/02/17 03:59:03;;;;;;;9.67;7.53;;;11.00;99.90;;;;;;5073989;28;20161;-71
2024/02/17 04:01:37;;;;;;;10.63;6.67;;;11.10;99.90;;;;;;5073630;28;20447;-71
2024/02/17 04:04:03;;;;;;;13.57;7.50;;;11.10;99.90;;;;;;5073934;28;20304;-71
2024/02/17 04:06:30;;;;;;;19.93;7.73;;;11.10;99.90;;;;;;5072429;28;20440;-71
2024/02/17 04:08:56;;;;;;;10.30;7.60;;;11.00;99.90;;;;;;5073883;28;20501;-71
2024/02/17 04:11:22;;;;;;;17.03;7.60;;;11.00;99.90;;;;;;5073476;28;20401;-71
2024/02/17 04:13:47;;;;;;;15.40;8.70;;;11.00;99.90;;;;;;5073535;28;20458;-71
2024/02/17 04:16:13;;;;;;;17.23;8.47;;;11.00;99.90;;;;;;5073528;28;20186;-71
2024/02/17 04:18:38;;;;;;;10.40;8.17;;;11.00;99.90;;;;;;5072810;28;20163;-71
2024/02/17 04:21:04;;;;;;;14.53;8.90;;;11.00;99.90;;;;;;5072085;28;20170;-71
2024/02/17 04:23:30;;;;;;;12.83;9.00;;;11.00;99.90;;;;;;5073158;28;20237;-71
2024/02/17 04:25:59;;;;;;;13.70;8.20;;;11.00;99.90;;;;;;5072995;28;20569;-71
2024/02/17 04:28:25;;;;;;;14.17;9.07;;;11.00;99.90;;;;;;5072937;28;20429;-71
2024/02/17 04:30:51;;;;;;;18.03;8.87;;;11.00;99.90;;;;;;5073125;28;20902;-71
2024/02/17 04:33:16;;;;;;;12.60;7.83;;;11.00;99.90;;;;;;5073323;28;20227;-71
2024/02/17 04:35:42;;;;;;;10.33;7.03;;;11.00;99.90;;;;;;5073453;28;20201;-71
2024/02/17 04:38:07;;;;;;;11.30;8.40;;;11.10;99.90;;;;;;5072990;28;20163;-71
2024/02/17 04:40:33;;;;;;;21.10;7.50;;;11.10;99.90;;;;;;5071968;28;20170;-71
2024/02/17 04:42:58;;;;;;;10.73;7.70;;;11.10;99.90;;;;;;5073315;28;20166;-71
2024/02/17 04:45:25;;;;;;;13.57;8.37;;;11.10;99.90;;;;;;5073416;28;20166;-71
2024/02/17 04:47:51;;;;;;;15.40;8.50;;;11.00;99.90;;;;;;5073341;28;20658;-71
2024/02/17 04:50:17;;;;;;;12.20;8.43;;;11.00;99.90;;;;;;5073290;28;20768;-71
2024/02/17 04:52:42;;;;;;;11.33;8.20;;;11.00;99.90;;;;;;5073526;28;20427;-71
2024/02/17 04:55:08;;;;;;;13.47;8.67;;;11.10;99.90;;;;;;5073088;28;20654;-71
2024/02/17 04:57:34;;;;;;;12.67;8.70;;;11.10;99.90;;;;;;5073159;28;20182;-71
2024/02/17 05:00:00;;;;;;;13.93;9.83;;;11.10;99.90;;;;;;5071872;28;20922;-71
2024/02/17 05:02:25;;;;;;;12.53;7.90;;;11.10;99.90;;;;;;5073151;28;20656;-71
2024/02/17 05:04:51;;;;;;;12.20;9.70;;;11.00;99.90;;;;;;5073174;28;20526;-71
2024/02/17 05:07:16;;;;;;;13.10;8.43;;;11.00;99.90;;;;;;5072677;28;20216;-71
2024/02/17 05:09:42;;;;;;;14.60;9.70;;;11.10;99.90;;;;;;5071758;28;20178;-71
2024/02/17 05:12:08;;;;;;;17.00;9.73;;;11.00;99.90;;;;;;5073118;28;20162;-71
2024/02/17 05:14:36;;;;;;;12.83;9.40;;;11.00;99.90;;;;;;5072880;28;20194;-71
2024/02/17 05:17:05;;;;;;;20.07;9.03;;;10.90;99.90;;;;;;5072517;28;20189;-71
2024/02/17 05:19:33;;;;;;;15.03;9.80;;;10.80;99.90;;;;;;5072707;28;20913;-71
2024/02/17 05:21:58;;;;;;;12.57;9.00;;;10.80;99.90;;;;;;5072876;28;20420;-71
2024/02/17 05:24:24;;;;;;;13.70;9.00;;;10.90;99.90;;;;;;5072767;28;20895;-71
2024/02/17 05:26:49;;;;;;;16.93;10.33;;;10.90;99.90;;;;;;5072670;28;20189;-71
2024/02/17 05:29:16;;;;;;;15.50;9.90;;;10.80;99.90;;;;;;5072761;28;20170;-71
2024/02/17 05:31:41;;;;;;;17.47;10.70;;;10.90;99.90;;;;;;5072608;28;20193;-71
2024/02/17 05:34:07;;;;;;;19.73;10.33;;;10.90;99.90;;;;;;5072577;28;20440;-71
2024/02/17 05:36:32;;;;;;;16.33;8.90;;;10.90;99.90;;;;;;5073011;28;20240;-70
2024/02/17 05:38:58;;;;;;;12.37;9.20;;;11.00;99.90;;;;;;5073097;28;20162;-71
2024/02/17 05:41:24;;;;;;;17.23;9.77;;;10.90;99.90;;;;;;5072487;28;20168;-71
2024/02/17 05:43:50;;;;;;;21.57;10.77;;;10.90;99.90;;;;;;5072713;28;20190;-71
2024/02/17 05:46:15;;;;;;;16.03;10.37;;;10.90;99.90;;;;;;5072579;28;20506;-71
2024/02/17 05:48:44;;;;;;;15.00;8.60;;;11.00;99.90;;;;;;5072415;28;20166;-71
2024/02/17 05:51:10;;;;;;;21.30;10.13;;;10.90;99.90;;;;;;5072100;28;20166;-71
2024/02/17 05:53:36;;;;;;;17.37;10.17;;;10.90;99.90;;;;;;5072152;28;20489;-71
2024/02/17 05:56:01;;;;;;;11.30;8.43;;;10.90;99.90;;;;;;5072782;28;20213;-71
2024/02/17 05:58:27;;;;;;;14.60;9.87;;;10.90;99.90;;;;;;5071009;28;20209;-71
2024/02/17 06:00:55;;;;;;;21.10;10.83;;;10.90;99.90;;;;;;5072053;28;20199;-71
2024/02/17 06:03:21;;;;;;;16.07;9.93;;;10.90;99.90;;;;;;5072501;28;20166;-71
2024/02/17 06:05:46;;;;;;;17.40;8.80;;;10.90;99.90;;;;;;5072284;28;20770;-71
2024/02/17 06:08:12;;;;;;;20.50;9.50;;;10.90;99.90;;;;;;5072367;28;20630;-71
2024/02/17 06:10:37;;;;;;;14.27;9.50;;;10.90;99.90;;;;;;5072865;28;20162;-71
2024/02/17 06:13:05;;;;;;;14.80;9.07;;;10.90;99.90;;;;;;5076360;28;20249;-71
2024/02/17 06:15:30;;;;;;;10.90;8.33;;;10.90;99.90;;;;;;5076349;28;20288;-71
2024/02/17 06:23:25;;;;;;;16.83;9.03;;;10.80;99.90;;;;;;5076654;28;20576;-71
2024/02/17 06:25:50;;;;;;;16.03;10.03;;;10.90;99.90;;;;;;5076326;28;20767;-71
2024/02/17 06:28:16;;;;;;;15.70;9.20;;;10.90;99.90;;;;;;5076357;28;20162;-71
2024/02/17 06:30:41;;;;;;;21.20;10.57;;;10.90;99.90;;;;;;5075767;28;20162;-71
2024/02/17 06:33:07;;;;;;;10.70;8.07;;;10.90;99.90;;;;;;5076081;28;20166;-71
2024/02/17 06:35:32;;;;;;;11.47;7.80;;;10.90;99.90;;;;;;5076170;28;20346;-71
2024/02/17 06:37:58;;;;;;;15.97;9.30;;;10.90;99.90;;;;;;5075873;28;20252;-71
2024/02/17 06:40:23;;;;;;;14.70;8.77;;;10.90;99.90;;;;;;5075800;28;20162;-71
2024/02/17 06:42:49;;;;;;;19.73;8.83;;;10.90;99.90;;;;;;5076044;28;20166;-71
2024/02/17 06:45:16;;;;;;;12.63;8.97;;;10.90;99.90;;;;;;5076030;28;20173;-71
2024/02/17 06:47:43;;;;;;;14.93;9.50;;;10.90;99.90;;;;;;5075620;28;20178;-71
2024/02/17 06:50:11;;;;;;;14.67;10.33;;;10.90;99.90;;;;;;5075832;28;20495;-71
2024/02/17 06:52:36;;;;;;;14.70;7.60;;;10.90;99.90;;;;;;5075777;28;20473;-71
2024/02/17 06:55:02;;;;;;;21.77;9.37;;;11.00;99.90;;;;;;5075992;28;20822;-71
2024/02/17 06:57:28;;;;;;;15.70;8.83;;;10.90;99.90;;;;;;5075946;28;20227;-71
2024/02/17 06:59:54;;;;;;;23.03;9.10;;;10.90;99.90;;;;;;5075705;28;20405;-71
2024/02/17 07:02:23;;;;;;;16.83;11.40;;;10.90;99.90;;;;;;5075829;28;20155;-71
2024/02/17 07:04:52;;;;;;;17.70;11.37;;;10.90;99.90;;;;;;5075654;28;20170;-71
2024/02/17 07:07:17;;;;;;;12.70;8.93;;;10.90;99.90;;;;;;5075600;28;20416;-71
2024/02/17 07:09:43;;;;;;;19.67;9.57;;;11.00;99.90;;;;;;5075566;28;20407;-71
2024/02/17 07:12:09;;;;;;;13.37;9.30;;;10.90;99.90;;;;;;5075192;28;20181;-71
2024/02/17 07:14:35;;;;;;;10.07;8.30;;;10.90;99.90;;;;;;5075496;28;20194;-71
2024/02/17 07:17:00;;;;;;;13.87;8.53;;;11.00;99.90;;;;;;5075283;28;20182;-71
2024/02/17 07:19:26;;;;;;;14.80;8.67;;;10.90;99.90;;;;;;5075417;28;20257;-71
2024/02/17 07:21:52;;;;;;;10.73;6.97;;;10.90;99.90;;;;;;5074038;28;20159;-67
2024/02/17 07:24:17;;;;;;;16.57;8.17;;;10.90;99.90;;;;;;5075230;28;20190;-69
2024/02/17 07:26:44;;;;;;;14.97;11.23;;;11.00;99.90;;;;;;5074951;28;20643;-69
2024/02/17 07:29:11;;;;;;;16.33;8.90;;;11.00;99.90;;;;;;5074781;28;20166;-69
2024/02/17 07:31:43;;;;;;;18.27;8.80;;;11.00;99.90;;;;;;5074192;28;20416;-69
2024/02/17 07:34:11;;;;;;;14.30;6.97;;;11.00;99.90;;;;;;5074365;28;20494;-69
2024/02/17 07:36:37;;;;;;;10.40;8.03;;;11.10;99.90;;;;;;5074614;28;20966;-69
2024/02/17 07:39:03;;;;;;;14.43;9.07;;;11.10;99.90;;;;;;5073074;28;20404;-69
2024/02/17 07:41:29;;;;;;;13.67;8.57;;;11.10;99.90;;;;;;5074030;28;20428;-69
2024/02/17 07:43:54;;;;;;;14.20;7.93;;;11.10;99.90;;;;;;5074108;28;20443;-69
2024/02/17 07:46:20;;;;;;;13.07;7.60;;;11.20;99.90;;;;;;5074080;28;20190;-69
2024/02/17 07:48:46;;;;;;;17.03;7.70;;;11.20;99.90;;;;;;5074443;28;20166;-69
2024/02/17 07:51:12;;;;;;;15.17;9.57;;;11.30;99.90;;;;;;5074025;28;20436;-69
2024/02/17 07:53:38;;;;;;;11.47;8.43;;;11.30;99.90;;;;;;5073999;28;20459;-69
2024/02/17 07:56:05;;;;;;;16.07;6.80;;;11.40;99.90;;;;;;5073962;28;20428;-69
2024/02/17 07:58:30;;;;;;;9.70;6.70;;;11.40;99.90;;;;;;5073895;28;20166;-68
2024/02/17 08:00:56;;;;;;;11.43;7.80;;;11.50;99.90;;;;;;5075589;28;20404;-68
2024/02/17 08:03:21;;;;;;;14.07;9.20;;;11.60;99.90;;;;;;5078850;28;20618;-68
2024/02/17 08:05:48;;;;;;;14.03;8.67;;;11.60;99.90;;;;;;5090239;28;20580;-67
2024/02/17 08:08:14;;;;;;;13.17;6.83;;;11.70;99.90;;;;;;5091995;28;20173;-68
2024/02/17 08:10:40;;;;;;;9.20;7.10;;;11.70;99.90;;;;;;5072685;28;20412;-67
2024/02/17 08:13:05;;;;;;;11.17;7.00;;;11.70;99.90;;;;;;5073354;28;20166;-67
2024/02/17 08:15:31;;;;;;;13.17;7.13;;;11.80;99.90;;;;;;5073089;28;20444;-68
2024/02/17 08:17:56;;;;;;;16.73;7.90;;;11.80;99.90;;;;;;5073379;28;20257;-68
2024/02/17 08:20:22;;;;;;;11.97;6.87;;;11.90;99.90;;;;;;5073113;28;20572;-68
2024/02/17 08:22:48;;;;;;;9.90;6.80;;;11.90;99.90;;;;;;5073626;28;20681;-68
2024/02/17 08:25:14;;;;;;;8.27;7.00;;;11.90;99.90;;;;;;5073182;28;20415;-68
2024/02/17 08:27:43;;;;;;;11.00;6.43;;;11.90;99.90;;;;;;5073098;28;20193;-68
2024/02/17 08:30:09;;;;;;;16.40;7.50;;;12.00;99.90;;;;;;5072790;28;20637;-67
2024/02/17 08:32:35;;;;;;;11.37;6.43;;;12.10;99.90;;;;;;5072931;28;20408;-68
2024/02/17 08:35:00;;;;;;;13.17;8.73;;;12.10;99.90;;;;;;5087860;28;20466;-67
2024/02/17 08:37:26;;;;;;;10.17;6.97;;;12.20;99.90;;;;;;5093303;28;20190;-68
2024/02/17 08:39:51;;;;;;;16.20;7.50;;;12.20;99.90;;;;;;5079491;28;20256;-67
2024/02/17 08:42:17;;;;;;;8.13;6.47;;;12.20;99.90;;;;;;5072914;28;20186;-68
2024/02/17 08:44:43;;;;;;;15.57;5.10;;;12.20;99.90;;;;;;5073127;28;20174;-68
2024/02/17 08:47:09;;;;;;;8.33;5.43;;;12.30;99.90;;;;;;5072966;28;20431;-68
2024/02/17 08:49:34;;;;;;;17.53;7.50;;;12.30;99.90;;;;;;5072615;28;20652;-68
2024/02/17 08:52:01;;;;;;;6.70;6.00;;;12.40;99.90;;;;;;5072744;28;20260;-68
2024/02/17 08:54:27;;;;;;;9.03;6.33;;;12.40;99.90;;;;;;5072703;28;20186;-68
2024/02/17 08:56:54;;;;;;;6.47;4.87;;;12.50;99.90;;;;;;5072485;28;20499;-68
2024/02/17 08:59:20;;;;;;;8.47;4.40;;;12.60;99.90;;;;;;5072480;28;20505;-68
2024/02/17 09:01:45;;;;;;;7.47;6.23;;;12.70;99.90;;;;;;5072675;28;20495;-68
2024/02/17 09:04:11;;;;;;;9.73;6.07;;;12.80;99.90;;;;;;5072668;28;20774;-68
2024/02/17 09:06:36;;;;;;;12.20;6.03;;;12.90;99.90;;;;;;5072577;28;20251;-68
2024/02/17 09:09:03;;;;;;;9.90;5.77;;;13.00;99.90;;;;;;5072538;28;20170;-68
2024/02/17 09:11:29;;;;;;;9.63;5.90;;;13.10;99.90;;;;;;5071772;28;20182;-66
2024/02/17 09:13:54;;;;;;;8.00;5.80;;;13.10;99.90;;;;;;5072183;28;20981;-67
2024/02/17 09:16:20;;;;;;;7.67;5.63;;;13.20;99.90;;;;;;5072546;28;20419;-67
2024/02/17 09:18:45;;;;;;;13.47;6.63;;;13.30;99.90;;;;;;5072355;28;20241;-68
2024/02/17 09:21:11;;;;;;;10.17;6.40;;;13.30;99.90;;;;;;5071942;28;20166;-68
2024/02/17 09:23:37;;;;;;;12.27;6.30;;;13.30;99.90;;;;;;5072161;28;20185;-68
2024/02/17 09:26:02;;;;;;;8.43;6.30;;;13.30;99.90;;;;;;5072075;28;20186;-67
2024/02/17 09:28:28;;;;;;;7.47;4.87;;;13.30;99.90;;;;;;5072081;28;20184;-67
2024/02/17 09:30:53;;;;;;;8.50;5.97;;;13.30;99.90;;;;;;5071951;28;20661;-67
2024/02/17 09:33:28;;;;;;;9.93;5.63;;;13.30;99.90;;;;;;5071909;28;20163;-67
2024/02/17 09:35:54;;;;;;;6.67;5.07;;;13.40;99.90;;;;;;5071710;28;20289;-68
2024/02/17 09:38:19;;;;;;;10.90;6.20;;;13.40;99.90;;;;;;5072013;28;20770;-68
2024/02/17 09:40:45;;;;;;;6.80;4.03;;;13.50;99.90;;;;;;5071642;28;20408;-67
2024/02/17 09:43:11;;;;;;;7.17;5.63;;;13.50;99.90;;;;;;5071434;28;20228;-68
2024/02/17 09:45:37;;;;;;;11.63;6.03;;;13.60;99.90;;;;;;5069966;28;20919;-68
2024/02/17 09:48:05;;;;;;;9.57;6.20;;;13.60;99.90;;;;;;5070612;28;20462;-67
2024/02/17 09:50:31;;;;;;;9.50;6.57;;;13.60;99.90;;;;;;5071541;28;20178;-67
2024/02/17 09:53:01;;;;;;;9.00;6.83;;;13.60;99.90;;;;;;5071776;28;20903;-68
2024/02/17 09:55:30;;;;;;;7.50;5.80;;;13.60;99.90;;;;;;5071700;28;20198;-68
2024/02/17 09:57:57;;;;;;;9.27;6.20;;;13.70;99.90;;;;;;5071658;28;20434;-68
2024/02/17 10:00:23;;;;;;;8.60;6.57;;;13.80;99.90;;;;;;5070314;28;20419;-68
2024/02/17 10:02:51;;;;;;;13.93;7.80;;;13.80;99.90;;;;;;5071868;28;20971;-68
2024/02/17 10:05:20;;;;;;;9.60;6.10;;;13.70;99.90;;;;;;5071717;28;20202;-67
2024/02/17 10:07:48;;;;;;;8.97;6.90;;;13.80;99.90;;;;;;5071290;28;20507;-68
2024/02/17 10:10:15;;;;;;;8.30;6.40;;;13.80;99.90;;;;;;5071346;28;20440;-67
2024/02/17 10:12:56;;;;;;;17.30;7.80;;;13.80;99.90;;;;;;5070267;28;21002;-67
2024/02/17 10:15:23;;;;;;;15.10;6.27;;;13.80;99.90;;;;;;5071591;28;20451;-68
2024/02/17 10:17:50;;;;;;;12.90;6.53;;;13.80;99.90;;;;;;5071532;28;20835;-69
2024/02/17 10:20:15;;;;;;;8.13;6.80;;;13.70;99.90;;;;;;5071323;28;20409;-67
2024/02/17 10:22:43;;;;;;;15.37;6.80;;;13.80;99.90;;;;;;5071530;28;20401;-67
2024/02/17 10:25:10;;;;;;;9.00;6.10;;;13.80;99.90;;;;;;5071490;28;20538;-68
2024/02/17 10:27:36;;;;;;;10.63;7.10;;;13.80;99.90;;;;;;5071324;28;20512;-67
2024/02/17 10:30:09;;;;;;;11.40;7.40;;;13.90;99.90;;;;;;5071407;28;20419;-68
2024/02/17 10:32:35;;;;;;;10.37;6.90;;;13.80;99.90;;;;;;5070055;28;20434;-68
2024/02/17 10:35:03;;;;;;;11.00;6.30;;;13.80;99.90;;;;;;5071394;28;20471;-68
2024/02/17 10:37:31;;;;;;;9.20;8.20;;;13.90;99.90;;;;;;5071290;28;20534;-68
2024/02/17 10:40:01;;;;;;;14.30;7.77;;;13.80;99.90;;;;;;5071141;28;20409;-67
2024/02/17 10:42:27;;;;;;;11.97;7.87;;;13.70;99.90;;;;;;5071353;28;20432;-68
2024/02/17 10:44:55;;;;;;;18.53;8.27;;;13.60;99.90;;;;;;5071423;28;20416;-68
2024/02/17 10:47:27;;;;;;;12.30;6.10;;;13.40;99.90;;;;;;5070882;28;20431;-68
2024/02/17 10:50:05;;;;;;;14.87;8.00;;;13.30;99.90;;;;;;5071088;28;20404;-67
2024/02/17 10:52:49;;;;;;;15.40;8.10;;;13.40;99.90;;;;;;5071148;28;20445;-68
2024/02/17 10:55:18;;;;;;;10.73;7.50;;;13.30;99.90;;;;;;5071166;28;21009;-67
2024/02/17 10:58:10;;;;;;;17.50;8.40;;;13.10;99.90;;;;;;5073988;28;20416;-66
2024/02/17 11:00:47;;;;;;;14.00;8.00;;;13.20;99.90;;;;;;5070052;28;20428;-66
2024/02/17 11:03:18;;;;;;;11.10;6.40;;;13.30;99.90;;;;;;5074478;28;20404;-67
2024/02/17 11:05:47;;;;;;;10.77;6.80;;;13.40;99.90;;;;;;5074773;28;20411;-67
2024/02/17 11:08:13;;;;;;;8.10;5.27;;;13.40;99.90;;;;;;5074765;28;20404;-67
2024/02/17 11:10:41;;;;;;;19.10;8.30;;;13.60;99.90;;;;;;5074508;28;20489;-67
2024/02/17 11:13:21;;;;;;;12.50;8.10;;;13.60;99.90;;;;;;5074684;28;20434;-67
2024/02/17 11:16:00;;;;;;;8.33;5.73;;;13.60;99.90;;;;;;5074511;28;20459;-67
2024/02/17 11:18:26;;;;;;;16.00;6.40;;;13.80;99.90;;;;;;5074307;28;20400;-67
2024/02/17 11:20:52;;;;;;;8.83;5.30;;;13.90;99.90;;;;;;5073809;28;20923;-68
2024/02/17 11:23:18;;;;;;;20.83;7.00;;;14.10;99.90;;;;;;5073986;28;20167;-67
2024/02/17 11:25:44;;;;;;;9.20;4.80;;;14.20;99.90;;;;;;5073910;28;20257;-68
2024/02/17 11:28:18;;;;;;;7.30;5.57;;;14.30;99.90;;;;;;5074066;28;20488;-66
2024/02/17 11:30:54;;;;;;;7.07;6.00;;;14.40;99.90;;;;;;5074201;28;20228;-68
2024/02/17 11:33:26;;;;;;;6.70;4.90;;;14.50;99.90;;;;;;5073972;28;20405;-67
2024/02/17 11:35:51;;;;;;;8.33;5.70;;;14.60;99.90;;;;;;5074219;28;20460;-67
2024/02/17 11:38:24;;;;;;;10.07;5.63;;;14.70;99.90;;;;;;5074231;28;20408;-67
2024/02/17 11:40:52;;;;;;;8.03;5.80;;;14.80;99.90;;;;;;5073939;28;20231;-67
2024/02/17 11:43:19;;;;;;;8.30;6.00;;;14.90;99.90;;;;;;5074058;28;20397;-67
2024/02/17 11:45:45;;;;;;;9.50;7.30;;;14.90;99.90;;;;;;5074006;28;20419;-67
2024/02/17 11:48:10;;;;;;;8.83;6.53;;;14.80;99.90;;;;;;5074084;28;20400;-67
2024/02/17 11:50:39;;;;;;;10.13;5.47;;;14.80;99.90;;;;;;5073865;28;20178;-67
2024/02/17 11:53:05;;;;;;;7.20;6.23;;;14.80;99.90;;;;;;5073524;28;20240;-67
2024/02/17 11:55:31;;;;;;;10.40;6.33;;;14.80;99.90;;;;;;5073729;28;20954;-67
2024/02/17 11:57:57;;;;;;;5.80;5.17;;;14.80;99.90;;;;;;5073857;28;20427;-66
2024/02/17 12:00:25;;;;;;;9.73;5.00;;;14.90;99.90;;;;;;5073608;28;20192;-67
2024/02/17 12:02:55;;;;;;;12.93;6.07;;;14.90;99.90;;;;;;5073734;28;20393;-67
2024/02/17 12:05:20;;;;;;;10.57;5.13;;;14.80;99.90;;;;;;5072961;28;20404;-67
2024/02/17 12:07:46;;;;;;;11.77;6.33;;;14.90;99.90;;;;;;5073094;28;20469;-66
2024/02/17 12:10:12;;;;;;;7.30;5.97;;;14.70;99.90;;;;;;5072853;28;20170;-66
2024/02/17 12:12:41;;;;;;;12.57;7.20;;;14.80;99.90;;;;;;5073215;28;20510;-68
2024/02/17 12:15:15;;;;;;;6.20;5.60;;;14.80;99.90;;;;;;5073440;28;20452;-68
2024/02/17 12:17:44;;;;;;;9.37;5.30;;;14.90;99.90;;;;;;5073379;28;20502;-68
2024/02/17 12:20:14;;;;;;;8.20;5.10;;;15.00;99.90;;;;;;5073229;28;20895;-67
2024/02/17 12:22:58;;;;;;;7.40;5.20;;;15.20;99.90;;;;;;5070788;28;20920;-67
2024/02/17 12:25:25;;;;;;;6.90;5.23;;;15.30;99.90;;;;;;5066345;28;20413;-67
2024/02/17 12:27:51;;;;;;;8.37;5.63;;;15.50;99.90;;;;;;5073061;28;20798;-66
2024/02/17 12:30:18;;;;;;;7.20;4.77;;;15.60;99.90;;;;;;5072909;28;20768;-68
2024/02/17 12:32:44;;;;;;;14.93;6.23;;;15.70;99.90;;;;;;5072903;28;20686;-68
2024/02/17 12:35:15;;;;;;;8.37;5.80;;;15.90;99.90;;;;;;5072956;28;20463;-68
2024/02/17 12:37:44;;;;;;;7.40;4.30;;;16.00;99.90;;;;;;5073241;28;20443;-67
2024/02/17 12:40:20;;;;;;;12.70;5.10;;;16.00;99.90;;;;;;5072627;28;20771;-66